sensor_id;sensor_type;location;lat;lon;timestamp;P1;durP1;ratioP1;P2;durP2;ratioP2
40541;SDS011;49288;52.194;5.676;2022-10-16T00:04:03;10.45;;;4.35;;
40541;SDS011;49288;52.194;5.676;2022-10-16T00:09:06;10.95;;;4.30;;
40541;SDS011;49288;52.194;5.676;2022-10-16T00:14:10;11.35;;;5.38;;
40541;SDS011;49288;52.194;5.676;2022-10-16T00:19:14;16.95;;;4.85;;
40541;SDS011;49288;52.194;5.676;2022-10-16T00:24:17;20.23;;;5.50;;
40541;SDS011;49288;52.194;5.676;2022-10-16T00:29:19;12.63;;;5.18;;
40541;SDS011;49288;52.194;5.676;2022-10-16T00:34:22;12.32;;;5.70;;
40541;SDS011;49288;52.194;5.676;2022-10-16T00:39:25;11.85;;;5.07;;
40541;SDS011;49288;52.194;5.676;2022-10-16T00:49:58;11.50;;;5.85;;
40541;SDS011;49288;52.194;5.676;2022-10-16T00:55:05;15.25;;;5.60;;
40541;SDS011;49288;52.194;5.676;2022-10-16T01:00:09;14.48;;;5.78;;
40541;SDS011;49288;52.194;5.676;2022-10-16T01:05:12;11.63;;;5.05;;
40541;SDS011;49288;52.194;5.676;2022-10-16T01:15:42;13.68;;;5.65;;
40541;SDS011;49288;52.194;5.676;2022-10-16T01:20:52;12.73;;;4.88;;
40541;SDS011;49288;52.194;5.676;2022-10-16T01:31:08;14.55;;;6.68;;
40541;SDS011;49288;52.194;5.676;2022-10-16T01:36:15;13.43;;;5.80;;
40541;SDS011;49288;52.194;5.676;2022-10-16T01:46:46;13.20;;;5.50;;
40541;SDS011;49288;52.194;5.676;2022-10-16T01:51:52;38.40;;;7.15;;
40541;SDS011;49288;52.194;5.676;2022-10-16T01:56:57;10.40;;;5.82;;
40541;SDS011;49288;52.194;5.676;2022-10-16T02:02:01;13.68;;;6.28;;
40541;SDS011;49288;52.194;5.676;2022-10-16T02:07:08;11.93;;;5.30;;
40541;SDS011;49288;52.194;5.676;2022-10-16T02:12:14;15.88;;;6.18;;
40541;SDS011;49288;52.194;5.676;2022-10-16T02:22:32;10.85;;;5.82;;
40541;SDS011;49288;52.194;5.676;2022-10-16T02:33:07;8.48;;;5.30;;
40541;SDS011;49288;52.194;5.676;2022-10-16T02:38:12;12.45;;;5.75;;
40541;SDS011;49288;52.194;5.676;2022-10-16T02:43:16;14.90;;;5.82;;
40541;SDS011;49288;52.194;5.676;2022-10-16T02:48:19;13.10;;;5.72;;
40541;SDS011;49288;52.194;5.676;2022-10-16T02:53:22;11.45;;;6.10;;
40541;SDS011;49288;52.194;5.676;2022-10-16T02:58:25;11.68;;;6.05;;
40541;SDS011;49288;52.194;5.676;2022-10-16T03:03:29;17.15;;;6.32;;
40541;SDS011;49288;52.194;5.676;2022-10-16T03:08:32;9.65;;;5.13;;
40541;SDS011;49288;52.194;5.676;2022-10-16T03:13:35;9.13;;;4.82;;
40541;SDS011;49288;52.194;5.676;2022-10-16T03:18:37;11.75;;;6.10;;
40541;SDS011;49288;52.194;5.676;2022-10-16T03:23:42;8.63;;;4.90;;
40541;SDS011;49288;52.194;5.676;2022-10-16T03:28:44;10.75;;;6.60;;
40541;SDS011;49288;52.194;5.676;2022-10-16T03:33:47;10.88;;;5.22;;
40541;SDS011;49288;52.194;5.676;2022-10-16T03:38:50;12.30;;;5.38;;
40541;SDS011;49288;52.194;5.676;2022-10-16T03:43:52;10.93;;;5.40;;
40541;SDS011;49288;52.194;5.676;2022-10-16T03:49:14;13.02;;;5.47;;
40541;SDS011;49288;52.194;5.676;2022-10-16T03:54:16;14.40;;;5.70;;
40541;SDS011;49288;52.194;5.676;2022-10-16T03:59:19;13.90;;;6.40;;
40541;SDS011;49288;52.194;5.676;2022-10-16T04:04:22;8.60;;;5.00;;
40541;SDS011;49288;52.194;5.676;2022-10-16T04:09:24;10.10;;;5.57;;
40541;SDS011;49288;52.194;5.676;2022-10-16T04:14:27;8.88;;;5.35;;
40541;SDS011;49288;52.194;5.676;2022-10-16T04:19:31;17.27;;;5.53;;
40541;SDS011;49288;52.194;5.676;2022-10-16T04:24:34;12.10;;;5.40;;
40541;SDS011;49288;52.194;5.676;2022-10-16T04:29:37;8.73;;;4.70;;
40541;SDS011;49288;52.194;5.676;2022-10-16T04:34:41;8.67;;;5.27;;
40541;SDS011;49288;52.194;5.676;2022-10-16T04:39:43;13.88;;;5.40;;
40541;SDS011;49288;52.194;5.676;2022-10-16T04:44:46;25.77;;;5.50;;
40541;SDS011;49288;52.194;5.676;2022-10-16T04:49:49;9.98;;;5.25;;
40541;SDS011;49288;52.194;5.676;2022-10-16T04:54:53;9.23;;;5.20;;
40541;SDS011;49288;52.194;5.676;2022-10-16T04:59:57;10.48;;;4.80;;
40541;SDS011;49288;52.194;5.676;2022-10-16T05:05:00;9.27;;;4.50;;
40541;SDS011;49288;52.194;5.676;2022-10-16T05:10:03;9.00;;;4.70;;
40541;SDS011;49288;52.194;5.676;2022-10-16T05:15:06;11.95;;;5.57;;
40541;SDS011;49288;52.194;5.676;2022-10-16T05:20:11;10.37;;;4.77;;
40541;SDS011;49288;52.194;5.676;2022-10-16T05:25:14;16.17;;;5.20;;
40541;SDS011;49288;52.194;5.676;2022-10-16T05:30:17;7.93;;;4.50;;
40541;SDS011;49288;52.194;5.676;2022-10-16T05:35:20;9.98;;;5.28;;
40541;SDS011;49288;52.194;5.676;2022-10-16T05:45:27;11.88;;;5.85;;
40541;SDS011;49288;52.194;5.676;2022-10-16T05:50:30;15.20;;;5.75;;
40541;SDS011;49288;52.194;5.676;2022-10-16T05:55:32;16.00;;;5.95;;
40541;SDS011;49288;52.194;5.676;2022-10-16T06:00:36;12.70;;;6.05;;
40541;SDS011;49288;52.194;5.676;2022-10-16T06:05:41;13.65;;;6.72;;
40541;SDS011;49288;52.194;5.676;2022-10-16T06:10:45;12.15;;;6.20;;
40541;SDS011;49288;52.194;5.676;2022-10-16T06:15:48;16.90;;;7.22;;
40541;SDS011;49288;52.194;5.676;2022-10-16T06:20:51;13.02;;;5.88;;
40541;SDS011;49288;52.194;5.676;2022-10-16T06:25:54;15.48;;;6.05;;
40541;SDS011;49288;52.194;5.676;2022-10-16T06:31:00;14.27;;;7.10;;
40541;SDS011;49288;52.194;5.676;2022-10-16T06:36:10;16.83;;;7.88;;
40541;SDS011;49288;52.194;5.676;2022-10-16T06:41:16;11.57;;;5.90;;
40541;SDS011;49288;52.194;5.676;2022-10-16T06:46:22;15.23;;;6.60;;
40541;SDS011;49288;52.194;5.676;2022-10-16T06:51:25;17.70;;;7.50;;
40541;SDS011;49288;52.194;5.676;2022-10-16T06:56:28;14.10;;;6.13;;
40541;SDS011;49288;52.194;5.676;2022-10-16T07:01:33;19.33;;;6.80;;
40541;SDS011;49288;52.194;5.676;2022-10-16T07:06:35;17.83;;;5.82;;
40541;SDS011;49288;52.194;5.676;2022-10-16T07:11:38;10.43;;;5.78;;
40541;SDS011;49288;52.194;5.676;2022-10-16T07:16:41;13.88;;;5.43;;
40541;SDS011;49288;52.194;5.676;2022-10-16T07:21:44;11.90;;;5.07;;
40541;SDS011;49288;52.194;5.676;2022-10-16T07:26:47;17.55;;;5.07;;
40541;SDS011;49288;52.194;5.676;2022-10-16T07:31:50;7.07;;;4.18;;
40541;SDS011;49288;52.194;5.676;2022-10-16T07:36:52;11.80;;;4.85;;
40541;SDS011;49288;52.194;5.676;2022-10-16T07:42:20;14.88;;;4.93;;
40541;SDS011;49288;52.194;5.676;2022-10-16T07:47:23;13.73;;;5.20;;
40541;SDS011;49288;52.194;5.676;2022-10-16T07:52:26;12.95;;;5.07;;
40541;SDS011;49288;52.194;5.676;2022-10-16T07:57:29;10.93;;;5.03;;
40541;SDS011;49288;52.194;5.676;2022-10-16T08:02:31;13.13;;;5.07;;
40541;SDS011;49288;52.194;5.676;2022-10-16T08:07:34;6.78;;;4.47;;
40541;SDS011;49288;52.194;5.676;2022-10-16T08:12:37;16.48;;;6.07;;
40541;SDS011;49288;52.194;5.676;2022-10-16T08:17:40;11.90;;;6.05;;
40541;SDS011;49288;52.194;5.676;2022-10-16T08:22:42;9.68;;;5.00;;
40541;SDS011;49288;52.194;5.676;2022-10-16T08:32:50;12.15;;;5.20;;
40541;SDS011;49288;52.194;5.676;2022-10-16T08:37:52;18.70;;;6.65;;
40541;SDS011;49288;52.194;5.676;2022-10-16T08:48:23;16.10;;;7.38;;
40541;SDS011;49288;52.194;5.676;2022-10-16T08:53:29;12.70;;;5.70;;
40541;SDS011;49288;52.194;5.676;2022-10-16T08:58:36;19.13;;;5.50;;
40541;SDS011;49288;52.194;5.676;2022-10-16T09:04:03;14.43;;;5.00;;
40541;SDS011;49288;52.194;5.676;2022-10-16T09:09:30;15.63;;;5.55;;
40541;SDS011;49288;52.194;5.676;2022-10-16T09:25:37;10.02;;;4.60;;
40541;SDS011;49288;52.194;5.676;2022-10-16T09:30:41;20.33;;;5.00;;
40541;SDS011;49288;52.194;5.676;2022-10-16T09:35:45;14.48;;;4.15;;
40541;SDS011;49288;52.194;5.676;2022-10-16T09:40:51;17.65;;;4.32;;
40541;SDS011;49288;52.194;5.676;2022-10-16T09:46:07;18.27;;;4.13;;
40541;SDS011;49288;52.194;5.676;2022-10-16T09:51:28;17.00;;;3.30;;
40541;SDS011;49288;52.194;5.676;2022-10-16T09:56:33;15.52;;;3.40;;
40541;SDS011;49288;52.194;5.676;2022-10-16T10:01:50;24.08;;;4.40;;
40541;SDS011;49288;52.194;5.676;2022-10-16T10:06:56;22.50;;;4.10;;
40541;SDS011;49288;52.194;5.676;2022-10-16T10:12:02;18.40;;;4.35;;
40541;SDS011;49288;52.194;5.676;2022-10-16T10:27:45;21.60;;;4.00;;
40541;SDS011;49288;52.194;5.676;2022-10-16T10:33:16;20.42;;;3.83;;
40541;SDS011;49288;52.194;5.676;2022-10-16T10:49:01;15.10;;;3.50;;
40541;SDS011;49288;52.194;5.676;2022-10-16T11:10:24;12.35;;;2.80;;
40541;SDS011;49288;52.194;5.676;2022-10-16T11:15:32;13.63;;;2.90;;
40541;SDS011;49288;52.194;5.676;2022-10-16T11:20:42;17.17;;;3.55;;
40541;SDS011;49288;52.194;5.676;2022-10-16T11:25:53;20.63;;;3.58;;
40541;SDS011;49288;52.194;5.676;2022-10-16T11:31:10;16.52;;;3.63;;
40541;SDS011;49288;52.194;5.676;2022-10-16T11:36:23;18.98;;;3.28;;
40541;SDS011;49288;52.194;5.676;2022-10-16T11:52:36;17.43;;;2.90;;
40541;SDS011;49288;52.194;5.676;2022-10-16T11:57:45;17.17;;;3.58;;
40541;SDS011;49288;52.194;5.676;2022-10-16T12:08:52;15.37;;;3.30;;
40541;SDS011;49288;52.194;5.676;2022-10-16T12:19:15;9.13;;;2.60;;
40541;SDS011;49288;52.194;5.676;2022-10-16T12:29:40;15.07;;;2.33;;
40541;SDS011;49288;52.194;5.676;2022-10-16T12:34:47;10.25;;;2.67;;
40541;SDS011;49288;52.194;5.676;2022-10-16T12:39:50;12.70;;;2.97;;
40541;SDS011;49288;52.194;5.676;2022-10-16T12:49:59;19.73;;;2.88;;
40541;SDS011;49288;52.194;5.676;2022-10-16T12:55:13;16.15;;;2.70;;
40541;SDS011;49288;52.194;5.676;2022-10-16T13:22:05;18.10;;;2.88;;
40541;SDS011;49288;52.194;5.676;2022-10-16T13:32:51;19.63;;;2.67;;
40541;SDS011;49288;52.194;5.676;2022-10-16T13:38:14;8.95;;;2.28;;
40541;SDS011;49288;52.194;5.676;2022-10-16T13:43:19;19.67;;;3.13;;
40541;SDS011;49288;52.194;5.676;2022-10-16T13:48:23;8.50;;;2.35;;
40541;SDS011;49288;52.194;5.676;2022-10-16T13:53:26;12.18;;;2.70;;
40541;SDS011;49288;52.194;5.676;2022-10-16T13:58:29;14.93;;;3.13;;
40541;SDS011;49288;52.194;5.676;2022-10-16T14:03:32;10.90;;;2.55;;
40541;SDS011;49288;52.194;5.676;2022-10-16T14:08:36;12.35;;;3.33;;
40541;SDS011;49288;52.194;5.676;2022-10-16T14:13:43;20.23;;;2.80;;
40541;SDS011;49288;52.194;5.676;2022-10-16T14:18:50;17.98;;;3.05;;
40541;SDS011;49288;52.194;5.676;2022-10-16T14:23:58;19.02;;;3.67;;
40541;SDS011;49288;52.194;5.676;2022-10-16T14:29:13;14.95;;;3.25;;
40541;SDS011;49288;52.194;5.676;2022-10-16T14:34:27;9.85;;;2.33;;
40541;SDS011;49288;52.194;5.676;2022-10-16T14:39:32;21.60;;;2.92;;
40541;SDS011;49288;52.194;5.676;2022-10-16T14:44:35;17.57;;;3.07;;
40541;SDS011;49288;52.194;5.676;2022-10-16T14:49:38;15.70;;;2.80;;
40541;SDS011;49288;52.194;5.676;2022-10-16T14:54:47;22.13;;;2.83;;
40541;SDS011;49288;52.194;5.676;2022-10-16T14:59:50;16.52;;;3.08;;
40541;SDS011;49288;52.194;5.676;2022-10-16T15:04:53;15.07;;;3.20;;
40541;SDS011;49288;52.194;5.676;2022-10-16T15:09:56;17.40;;;2.55;;
40541;SDS011;49288;52.194;5.676;2022-10-16T15:15:00;13.30;;;2.53;;
40541;SDS011;49288;52.194;5.676;2022-10-16T15:20:03;19.20;;;3.33;;
40541;SDS011;49288;52.194;5.676;2022-10-16T15:25:15;14.48;;;2.50;;
40541;SDS011;49288;52.194;5.676;2022-10-16T15:30:44;14.70;;;2.58;;
40541;SDS011;49288;52.194;5.676;2022-10-16T15:35:47;15.52;;;3.08;;
40541;SDS011;49288;52.194;5.676;2022-10-16T15:40:51;14.55;;;2.92;;
40541;SDS011;49288;52.194;5.676;2022-10-16T15:46:04;10.52;;;2.72;;
40541;SDS011;49288;52.194;5.676;2022-10-16T15:51:08;17.92;;;2.67;;
40541;SDS011;49288;52.194;5.676;2022-10-16T15:56:11;21.38;;;3.13;;
40541;SDS011;49288;52.194;5.676;2022-10-16T16:01:17;29.13;;;12.48;;
40541;SDS011;49288;52.194;5.676;2022-10-16T16:06:19;35.20;;;9.90;;
40541;SDS011;49288;52.194;5.676;2022-10-16T16:11:22;20.48;;;6.05;;
40541;SDS011;49288;52.194;5.676;2022-10-16T16:16:25;16.25;;;4.45;;
40541;SDS011;49288;52.194;5.676;2022-10-16T16:21:28;17.33;;;3.88;;
40541;SDS011;49288;52.194;5.676;2022-10-16T16:26:34;21.77;;;3.70;;
40541;SDS011;49288;52.194;5.676;2022-10-16T16:31:39;21.88;;;3.63;;
40541;SDS011;49288;52.194;5.676;2022-10-16T16:36:43;18.05;;;4.65;;
40541;SDS011;49288;52.194;5.676;2022-10-16T16:41:46;11.40;;;3.33;;
40541;SDS011;49288;52.194;5.676;2022-10-16T16:46:50;12.18;;;3.75;;
40541;SDS011;49288;52.194;5.676;2022-10-16T16:51:53;17.45;;;3.40;;
40541;SDS011;49288;52.194;5.676;2022-10-16T16:56:56;20.83;;;3.75;;
40541;SDS011;49288;52.194;5.676;2022-10-16T17:01:59;16.75;;;3.80;;
40541;SDS011;49288;52.194;5.676;2022-10-16T17:07:02;9.38;;;3.03;;
40541;SDS011;49288;52.194;5.676;2022-10-16T17:12:04;12.45;;;3.15;;
40541;SDS011;49288;52.194;5.676;2022-10-16T17:17:07;11.88;;;3.38;;
40541;SDS011;49288;52.194;5.676;2022-10-16T17:22:10;16.98;;;3.63;;
40541;SDS011;49288;52.194;5.676;2022-10-16T17:27:13;20.30;;;3.88;;
40541;SDS011;49288;52.194;5.676;2022-10-16T17:32:15;21.98;;;3.75;;
40541;SDS011;49288;52.194;5.676;2022-10-16T17:37:18;10.68;;;3.25;;
40541;SDS011;49288;52.194;5.676;2022-10-16T17:42:21;12.07;;;3.10;;
40541;SDS011;49288;52.194;5.676;2022-10-16T17:47:24;19.67;;;3.63;;
40541;SDS011;49288;52.194;5.676;2022-10-16T17:52:27;16.48;;;3.67;;
40541;SDS011;49288;52.194;5.676;2022-10-16T17:57:31;32.05;;;4.10;;
40541;SDS011;49288;52.194;5.676;2022-10-16T18:02:33;17.85;;;3.22;;
40541;SDS011;49288;52.194;5.676;2022-10-16T18:07:38;15.40;;;3.25;;
40541;SDS011;49288;52.194;5.676;2022-10-16T18:12:42;26.98;;;4.47;;
40541;SDS011;49288;52.194;5.676;2022-10-16T18:17:45;24.90;;;3.55;;
40541;SDS011;49288;52.194;5.676;2022-10-16T18:22:48;13.73;;;3.53;;
40541;SDS011;49288;52.194;5.676;2022-10-16T18:27:51;13.13;;;3.00;;
40541;SDS011;49288;52.194;5.676;2022-10-16T18:32:53;18.25;;;3.47;;
40541;SDS011;49288;52.194;5.676;2022-10-16T18:37:56;20.48;;;3.33;;
40541;SDS011;49288;52.194;5.676;2022-10-16T18:43:01;16.83;;;3.50;;
40541;SDS011;49288;52.194;5.676;2022-10-16T18:48:04;17.77;;;3.00;;
40541;SDS011;49288;52.194;5.676;2022-10-16T18:53:07;13.30;;;3.40;;
40541;SDS011;49288;52.194;5.676;2022-10-16T18:58:10;6.88;;;3.00;;
40541;SDS011;49288;52.194;5.676;2022-10-16T19:03:13;10.60;;;2.80;;
40541;SDS011;49288;52.194;5.676;2022-10-16T19:08:15;11.20;;;3.17;;
40541;SDS011;49288;52.194;5.676;2022-10-16T19:13:18;11.85;;;3.35;;
40541;SDS011;49288;52.194;5.676;2022-10-16T19:18:27;11.25;;;3.20;;
40541;SDS011;49288;52.194;5.676;2022-10-16T19:23:30;14.55;;;3.40;;
40541;SDS011;49288;52.194;5.676;2022-10-16T19:28:33;13.90;;;3.50;;
40541;SDS011;49288;52.194;5.676;2022-10-16T19:33:38;14.50;;;4.35;;
40541;SDS011;49288;52.194;5.676;2022-10-16T19:38:43;9.18;;;3.08;;
40541;SDS011;49288;52.194;5.676;2022-10-16T19:43:46;20.88;;;3.70;;
40541;SDS011;49288;52.194;5.676;2022-10-16T19:48:57;13.07;;;3.57;;
40541;SDS011;49288;52.194;5.676;2022-10-16T19:54:06;11.93;;;3.88;;
40541;SDS011;49288;52.194;5.676;2022-10-16T19:59:10;18.90;;;3.75;;
40541;SDS011;49288;52.194;5.676;2022-10-16T20:04:14;22.25;;;3.85;;
40541;SDS011;49288;52.194;5.676;2022-10-16T20:09:17;21.10;;;5.30;;
40541;SDS011;49288;52.194;5.676;2022-10-16T20:14:20;14.10;;;4.13;;
40541;SDS011;49288;52.194;5.676;2022-10-16T20:19:22;22.58;;;6.20;;
40541;SDS011;49288;52.194;5.676;2022-10-16T20:24:25;17.17;;;4.68;;
40541;SDS011;49288;52.194;5.676;2022-10-16T20:29:28;13.35;;;4.95;;
40541;SDS011;49288;52.194;5.676;2022-10-16T20:34:31;19.27;;;5.28;;
40541;SDS011;49288;52.194;5.676;2022-10-16T20:39:33;11.85;;;5.05;;
40541;SDS011;49288;52.194;5.676;2022-10-16T20:44:36;12.90;;;4.82;;
40541;SDS011;49288;52.194;5.676;2022-10-16T20:49:39;17.50;;;5.25;;
40541;SDS011;49288;52.194;5.676;2022-10-16T20:54:43;20.23;;;6.28;;
40541;SDS011;49288;52.194;5.676;2022-10-16T20:59:47;12.38;;;5.93;;
40541;SDS011;49288;52.194;5.676;2022-10-16T21:04:51;19.25;;;5.97;;
40541;SDS011;49288;52.194;5.676;2022-10-16T21:09:55;14.02;;;6.20;;
40541;SDS011;49288;52.194;5.676;2022-10-16T21:14:58;19.73;;;6.60;;
40541;SDS011;49288;52.194;5.676;2022-10-16T21:20:16;21.42;;;6.13;;
40541;SDS011;49288;52.194;5.676;2022-10-16T21:25:18;20.25;;;6.10;;
40541;SDS011;49288;52.194;5.676;2022-10-16T21:30:23;14.93;;;5.55;;
40541;SDS011;49288;52.194;5.676;2022-10-16T21:35:25;12.18;;;6.32;;
40541;SDS011;49288;52.194;5.676;2022-10-16T21:40:28;16.65;;;5.35;;
40541;SDS011;49288;52.194;5.676;2022-10-16T21:45:33;18.10;;;6.45;;
40541;SDS011;49288;52.194;5.676;2022-10-16T21:55:38;15.10;;;6.55;;
40541;SDS011;49288;52.194;5.676;2022-10-16T22:00:41;18.33;;;6.72;;
40541;SDS011;49288;52.194;5.676;2022-10-16T22:05:43;14.20;;;6.10;;
40541;SDS011;49288;52.194;5.676;2022-10-16T22:10:46;13.73;;;5.70;;
40541;SDS011;49288;52.194;5.676;2022-10-16T22:15:50;19.17;;;6.53;;
40541;SDS011;49288;52.194;5.676;2022-10-16T22:20:54;13.43;;;6.15;;
40541;SDS011;49288;52.194;5.676;2022-10-16T22:25:58;18.15;;;6.60;;
40541;SDS011;49288;52.194;5.676;2022-10-16T22:31:02;18.50;;;6.82;;
40541;SDS011;49288;52.194;5.676;2022-10-16T22:36:06;18.75;;;6.78;;
40541;SDS011;49288;52.194;5.676;2022-10-16T22:46:15;13.20;;;5.97;;
40541;SDS011;49288;52.194;5.676;2022-10-16T22:51:20;15.15;;;6.47;;
40541;SDS011;49288;52.194;5.676;2022-10-16T22:56:23;10.18;;;5.13;;
40541;SDS011;49288;52.194;5.676;2022-10-16T23:01:30;14.45;;;6.35;;
40541;SDS011;49288;52.194;5.676;2022-10-16T23:06:43;18.35;;;6.10;;
40541;SDS011;49288;52.194;5.676;2022-10-16T23:11:46;18.63;;;7.15;;
40541;SDS011;49288;52.194;5.676;2022-10-16T23:16:49;18.98;;;6.97;;
40541;SDS011;49288;52.194;5.676;2022-10-16T23:22:10;17.58;;;8.43;;
40541;SDS011;49288;52.194;5.676;2022-10-16T23:27:13;16.10;;;8.00;;
40541;SDS011;49288;52.194;5.676;2022-10-16T23:32:16;18.73;;;7.72;;
40541;SDS011;49288;52.194;5.676;2022-10-16T23:37:19;15.68;;;8.13;;
40541;SDS011;49288;52.194;5.676;2022-10-16T23:42:22;16.45;;;6.47;;
40541;SDS011;49288;52.194;5.676;2022-10-16T23:47:27;14.27;;;6.32;;
40541;SDS011;49288;52.194;5.676;2022-10-16T23:52:30;13.05;;;5.80;;
40541;SDS011;49288;52.194;5.676;2022-10-16T23:57:32;27.52;;;8.00;;
